createdAt,value
2023-05-04T00:02:21.410Z,8.73
2023-05-04T00:04:48.076Z,9.73
2023-05-04T00:07:15.521Z,8.53
2023-05-04T00:09:41.912Z,8.93
2023-05-04T00:12:08.327Z,7.60
2023-05-04T00:14:34.602Z,7.80
2023-05-04T00:17:02.181Z,7.50
2023-05-04T00:19:28.383Z,7.83
2023-05-04T00:21:54.581Z,7.77
2023-05-04T00:24:21.500Z,7.23
2023-05-04T00:26:47.686Z,7.10
2023-05-04T00:29:13.865Z,7.40
2023-05-04T00:31:40.153Z,6.57
2023-05-04T00:34:06.633Z,6.63
2023-05-04T00:36:32.835Z,6.37
2023-05-04T00:38:59.076Z,5.97
2023-05-04T00:41:25.910Z,5.37
2023-05-04T00:43:52.113Z,5.10
2023-05-04T00:46:18.498Z,5.50
2023-05-04T00:48:46.610Z,4.70
2023-05-04T00:51:14.526Z,5.10
2023-05-04T00:53:41.130Z,4.93
2023-05-04T00:56:07.930Z,5.23
2023-05-04T00:58:35.081Z,4.80
2023-05-04T01:01:02.571Z,4.77
2023-05-04T01:03:29.496Z,4.63
2023-05-04T01:06:03.766Z,5.00
2023-05-04T01:08:31.930Z,4.47
2023-05-04T01:11:03.820Z,5.20
2023-05-04T01:13:32.290Z,5.43
2023-05-04T01:15:59.366Z,5.33
2023-05-04T01:18:25.766Z,4.67
2023-05-04T01:20:53.445Z,5.07
2023-05-04T01:23:20.724Z,4.37
2023-05-04T01:25:52.389Z,4.60
2023-05-04T01:28:20.449Z,5.00
2023-05-04T01:30:49.969Z,4.77
2023-05-04T01:33:17.142Z,4.77
2023-05-04T01:35:43.572Z,5.37
2023-05-04T01:38:09.909Z,4.53
2023-05-04T01:40:36.736Z,5.10
2023-05-04T01:43:02.936Z,5.30
2023-05-04T01:45:29.395Z,4.73
2023-05-04T01:47:55.719Z,4.40
2023-05-04T01:50:21.922Z,4.70
2023-05-04T01:52:48.071Z,4.70
2023-05-04T01:55:14.227Z,4.43
2023-05-04T01:57:41.103Z,4.60
2023-05-04T02:00:08.289Z,4.67
2023-05-04T02:02:34.611Z,4.43
2023-05-04T02:05:00.990Z,4.77
2023-05-04T02:07:27.183Z,4.40
2023-05-04T02:09:53.463Z,5.10
2023-05-04T02:12:19.839Z,4.30
2023-05-04T02:14:46.687Z,4.37
2023-05-04T02:17:12.912Z,5.07
2023-05-04T02:19:39.136Z,4.97
2023-05-04T02:22:05.412Z,4.47
2023-05-04T02:24:31.605Z,4.87
2023-05-04T02:26:58.133Z,4.77
2023-05-04T02:29:24.496Z,4.37
2023-05-04T02:31:51.498Z,4.47
2023-05-04T02:34:17.668Z,4.83
2023-05-04T02:36:43.833Z,4.83
2023-05-04T02:39:10.063Z,4.90
2023-05-04T02:41:36.302Z,4.77
2023-05-04T02:44:02.501Z,4.93
2023-05-04T02:46:28.735Z,4.73
2023-05-04T02:48:55.539Z,4.90
2023-05-04T02:51:21.738Z,4.70
2023-05-04T02:53:48.093Z,4.43
2023-05-04T02:56:14.297Z,4.47
2023-05-04T02:58:40.857Z,4.40
2023-05-04T03:01:07.308Z,4.50
2023-05-04T03:03:33.761Z,4.23
2023-05-04T03:06:00.609Z,4.47
2023-05-04T03:08:28.764Z,4.33
2023-05-04T03:10:55.016Z,4.43
2023-05-04T03:13:21.299Z,4.40
2023-05-04T03:15:47.522Z,4.47
2023-05-04T03:18:13.791Z,4.90
2023-05-04T03:20:40.289Z,4.53
2023-05-04T03:23:07.122Z,4.23
2023-05-04T03:25:33.449Z,4.03
2023-05-04T03:28:00.191Z,4.40
2023-05-04T03:30:26.579Z,4.27
2023-05-04T03:32:52.901Z,4.67
2023-05-04T03:35:24.751Z,4.47
2023-05-04T03:37:51.450Z,4.50
2023-05-04T03:40:21.699Z,4.43
2023-05-04T03:42:47.963Z,4.70
2023-05-04T03:45:14.227Z,4.67
2023-05-04T03:47:40.535Z,4.27
2023-05-04T03:50:08.806Z,4.60
2023-05-04T03:52:35.291Z,4.87
2023-05-04T03:55:01.572Z,4.30
2023-05-04T03:57:28.486Z,4.30
2023-05-04T03:59:57.126Z,4.60
2023-05-04T04:02:24.258Z,4.87
2023-05-04T04:04:50.579Z,4.67
2023-05-04T04:07:16.763Z,4.63
2023-05-04T04:09:42.945Z,4.67
2023-05-04T04:12:09.101Z,4.70
2023-05-04T04:14:35.911Z,4.67
2023-05-04T04:17:02.129Z,4.90
2023-05-04T04:19:28.551Z,5.10
2023-05-04T04:21:54.778Z,5.10
2023-05-04T04:24:21.033Z,4.63
2023-05-04T04:26:47.354Z,4.30
2023-05-04T04:29:13.587Z,4.50
2023-05-04T04:31:40.506Z,4.90
2023-05-04T04:34:06.765Z,4.33
2023-05-04T04:36:33.052Z,5.10
2023-05-04T04:38:59.231Z,4.33
2023-05-04T04:41:25.484Z,4.57
2023-05-04T04:43:51.655Z,4.40
2023-05-04T04:46:18.442Z,4.70
2023-05-04T04:48:45.293Z,4.80
2023-05-04T04:51:11.740Z,4.30
2023-05-04T04:53:38.119Z,4.40
2023-05-04T04:56:04.973Z,4.47
2023-05-04T04:58:33.593Z,4.33
2023-05-04T05:01:02.490Z,4.17
2023-05-04T05:03:28.782Z,4.77
2023-05-04T05:05:55.580Z,4.37
2023-05-04T05:08:21.784Z,4.30
2023-05-04T05:10:47.988Z,4.00
2023-05-04T05:13:14.493Z,4.00
2023-05-04T05:15:40.866Z,4.40
2023-05-04T05:18:07.253Z,4.07
2023-05-04T05:20:33.619Z,4.97
2023-05-04T05:23:00.477Z,4.10
2023-05-04T05:25:27.281Z,4.00
2023-05-04T05:27:53.637Z,4.47
2023-05-04T05:30:19.870Z,4.07
2023-05-04T05:32:47.757Z,3.93
2023-05-04T05:35:17.243Z,3.97
2023-05-04T05:37:43.513Z,4.03
2023-05-04T05:40:11.546Z,4.03
2023-05-04T05:42:37.718Z,3.60
2023-05-04T05:45:04.921Z,3.90
2023-05-04T05:47:31.350Z,4.17
2023-05-04T05:49:57.711Z,4.07
2023-05-04T05:52:23.932Z,3.50
2023-05-04T05:54:50.515Z,3.50
2023-05-04T05:57:17.557Z,3.40
2023-05-04T05:59:44.230Z,3.20
2023-05-04T06:02:13.700Z,3.10
2023-05-04T06:04:40.097Z,3.40
2023-05-04T06:07:06.330Z,3.20
2023-05-04T06:09:33.135Z,3.17
2023-05-04T06:11:59.546Z,3.20
2023-05-04T06:14:26.316Z,2.70
2023-05-04T06:16:52.546Z,3.13
2023-05-04T06:19:19.015Z,2.93
2023-05-04T06:21:45.319Z,3.43
2023-05-04T06:24:11.747Z,2.87
2023-05-04T06:26:37.964Z,3.43
2023-05-04T06:29:04.453Z,2.83
2023-05-04T06:31:31.981Z,2.83
2023-05-04T06:33:58.346Z,2.60
2023-05-04T06:36:25.242Z,2.87
2023-05-04T06:38:51.545Z,2.53
2023-05-04T06:41:17.927Z,2.67
2023-05-04T06:43:44.281Z,2.37
2023-05-04T06:46:10.527Z,2.87
2023-05-04T06:48:37.358Z,2.13
2023-05-04T06:51:04.086Z,2.90
2023-05-04T06:53:30.274Z,2.30
2023-05-04T06:55:56.483Z,2.57
2023-05-04T06:58:22.887Z,2.40
2023-05-04T07:00:49.197Z,2.50
2023-05-04T07:03:15.565Z,2.50
2023-05-04T07:05:44.493Z,2.40
2023-05-04T07:08:10.870Z,2.73
2023-05-04T07:10:37.056Z,2.60
2023-05-04T07:13:03.643Z,2.63
2023-05-04T07:15:30.093Z,2.47
2023-05-04T07:17:56.334Z,2.50
2023-05-04T07:20:25.687Z,2.33
2023-05-04T07:22:55.598Z,2.37
2023-05-04T07:25:22.083Z,2.30
2023-05-04T07:27:48.361Z,2.40
2023-05-04T07:30:15.094Z,2.40
2023-05-04T07:32:41.330Z,2.47
2023-05-04T07:35:08.416Z,2.00
2023-05-04T07:37:34.745Z,2.43
2023-05-04T07:40:05.044Z,2.20
2023-05-04T07:42:31.711Z,2.50
2023-05-04T07:44:57.976Z,1.93
2023-05-04T07:47:24.756Z,2.80
2023-05-04T07:49:51.052Z,2.40
2023-05-04T07:52:17.310Z,2.57
2023-05-04T07:54:43.596Z,2.00
2023-05-04T07:57:10.491Z,2.30
2023-05-04T07:59:36.750Z,2.40
2023-05-04T08:02:03.517Z,2.40
2023-05-04T08:04:31.015Z,3.30
2023-05-04T08:06:57.181Z,2.47
2023-05-04T08:09:23.434Z,2.53
2023-05-04T08:11:49.762Z,2.40
2023-05-04T08:14:17.018Z,3.10
2023-05-04T08:16:43.290Z,2.70
2023-05-04T08:19:09.519Z,2.50
2023-05-04T08:21:35.767Z,2.73
2023-05-04T08:24:02.173Z,2.80
2023-05-04T08:26:28.437Z,2.93
2023-05-04T08:29:05.183Z,3.03
2023-05-04T08:31:32.055Z,3.00
2023-05-04T08:33:58.274Z,2.93
2023-05-04T08:36:25.851Z,2.93
2023-05-04T08:38:52.790Z,3.13
2023-05-04T08:41:19.202Z,3.80
2023-05-04T08:43:48.511Z,3.73
2023-05-04T08:46:15.241Z,3.73
2023-05-04T08:48:44.088Z,3.37
2023-05-04T08:51:10.727Z,3.47
2023-05-04T08:53:42.878Z,3.70
2023-05-04T08:56:12.368Z,3.30
2023-05-04T08:58:50.798Z,3.47
2023-05-04T09:01:17.694Z,3.30
2023-05-04T09:03:46.225Z,3.30
2023-05-04T09:06:14.125Z,3.47
2023-05-04T09:08:40.754Z,3.23
2023-05-04T09:11:07.309Z,3.30
2023-05-04T09:13:37.550Z,4.23
2023-05-04T09:16:04.372Z,3.70
2023-05-04T09:18:38.627Z,3.53
2023-05-04T09:21:05.941Z,3.80
2023-05-04T09:23:32.855Z,3.33
2023-05-04T09:25:59.212Z,3.10
2023-05-04T09:28:34.236Z,3.73
2023-05-04T09:31:01.723Z,3.50
2023-05-04T09:33:28.544Z,3.43
2023-05-04T09:35:56.216Z,3.53
2023-05-04T09:38:26.413Z,3.43
2023-05-04T09:40:52.678Z,3.47
2023-05-04T09:43:18.894Z,3.73
2023-05-04T09:45:46.194Z,3.80
2023-05-04T09:48:16.857Z,3.27
2023-05-04T09:50:51.918Z,3.50
2023-05-04T09:53:20.692Z,3.70
2023-05-04T09:55:47.949Z,3.87
2023-05-04T09:58:15.914Z,3.40
2023-05-04T10:00:42.266Z,3.93
2023-05-04T10:03:09.053Z,3.30
2023-05-04T10:05:38.386Z,3.20
2023-05-04T10:08:05.800Z,3.20
2023-05-04T10:10:33.022Z,3.07
2023-05-04T10:12:59.964Z,3.30
2023-05-04T10:15:26.356Z,3.50
2023-05-04T10:18:03.195Z,3.57
2023-05-04T10:20:50.275Z,3.20
2023-05-04T10:23:33.465Z,3.63
2023-05-04T10:26:25.936Z,3.00
2023-05-04T10:29:01.404Z,3.90
2023-05-04T10:31:37.201Z,4.13
2023-05-04T10:34:04.455Z,3.47
2023-05-04T10:36:35.831Z,3.33
2023-05-04T10:39:02.036Z,3.20
2023-05-04T10:41:28.218Z,3.00
2023-05-04T10:44:03.185Z,3.27
2023-05-04T10:46:29.393Z,3.43
2023-05-04T10:48:55.842Z,3.00
2023-05-04T10:51:23.696Z,3.20
2023-05-04T10:53:51.036Z,3.20
2023-05-04T10:56:23.991Z,3.20
2023-05-04T10:58:50.448Z,3.47
2023-05-04T11:01:17.740Z,3.00
2023-05-04T11:03:44.179Z,3.20
2023-05-04T11:06:19.589Z,3.17
2023-05-04T11:08:58.601Z,3.23
2023-05-04T11:11:24.866Z,3.00
2023-05-04T11:13:51.612Z,3.10
2023-05-04T11:16:22.918Z,3.30
2023-05-04T11:18:49.194Z,2.93
2023-05-04T11:21:23.574Z,3.17
2023-05-04T11:23:54.469Z,3.63
2023-05-04T11:26:20.647Z,3.30
2023-05-04T11:28:46.818Z,2.80
2023-05-04T11:31:13.413Z,2.70
2023-05-04T11:33:45.519Z,2.50
2023-05-04T11:36:11.689Z,2.57
2023-05-04T11:38:37.958Z,2.07
2023-05-04T11:41:04.218Z,2.63
2023-05-04T11:43:31.638Z,2.80
2023-05-04T11:46:00.156Z,2.50
2023-05-04T11:48:26.417Z,2.10
2023-05-04T11:50:54.366Z,2.17
2023-05-04T11:53:22.474Z,2.33
2023-05-04T11:55:48.873Z,2.17
2023-05-04T11:58:15.395Z,2.10
2023-05-04T12:00:43.011Z,2.03
2023-05-04T12:03:12.149Z,2.13
2023-05-04T12:05:46.442Z,2.40
2023-05-04T12:08:23.328Z,2.30
2023-05-04T12:10:49.748Z,2.30
2023-05-04T12:13:16.586Z,2.10
2023-05-04T12:15:43.310Z,2.60
2023-05-04T12:18:20.326Z,2.10
2023-05-04T12:20:47.531Z,2.33
2023-05-04T12:23:13.734Z,2.03
2023-05-04T12:25:51.000Z,2.27
2023-05-04T12:28:26.055Z,2.17
2023-05-04T12:30:53.001Z,2.20
2023-05-04T12:33:19.147Z,1.80
2023-05-04T12:35:46.019Z,2.07
2023-05-04T12:38:12.148Z,2.10
2023-05-04T12:40:38.466Z,2.30
2023-05-04T12:43:05.390Z,2.30
2023-05-04T12:45:31.573Z,2.20
2023-05-04T12:47:57.783Z,1.97
2023-05-04T12:50:23.908Z,2.17
2023-05-04T12:52:50.053Z,2.10
2023-05-04T12:55:16.781Z,2.20
2023-05-04T12:57:44.129Z,2.03
2023-05-04T13:00:13.356Z,2.30
2023-05-04T13:02:39.699Z,2.07
2023-05-04T13:05:07.216Z,2.10
2023-05-04T13:07:33.889Z,2.20
2023-05-04T13:10:00.456Z,2.10
2023-05-04T13:12:29.318Z,2.03
2023-05-04T13:14:57.207Z,2.20
2023-05-04T13:17:24.070Z,2.07
2023-05-04T13:19:50.315Z,1.90
2023-05-04T13:22:16.690Z,2.00
2023-05-04T13:24:42.843Z,2.10
2023-05-04T13:27:09.069Z,2.27
2023-05-04T13:29:36.013Z,2.03
2023-05-04T13:32:02.216Z,2.33
2023-05-04T13:34:29.075Z,2.20
2023-05-04T13:36:55.383Z,2.20
2023-05-04T13:39:25.040Z,2.13
2023-05-04T13:41:51.222Z,2.10
2023-05-04T13:44:17.417Z,2.07
2023-05-04T13:46:46.217Z,1.93
2023-05-04T13:49:12.477Z,2.17
2023-05-04T13:51:46.082Z,2.10
2023-05-04T13:54:12.429Z,1.90
2023-05-04T13:56:38.708Z,2.00
2023-05-04T13:59:04.836Z,2.30
2023-05-04T14:01:31.093Z,1.73
2023-05-04T14:03:57.284Z,1.97
2023-05-04T14:06:23.707Z,1.97
2023-05-04T14:08:50.616Z,2.20
2023-05-04T14:11:16.754Z,2.00
2023-05-04T14:13:43.067Z,2.43
2023-05-04T14:16:09.308Z,2.20
2023-05-04T14:18:35.525Z,1.87
2023-05-04T14:21:01.734Z,2.30
2023-05-04T14:23:27.935Z,2.03
2023-05-04T14:25:56.146Z,2.00
2023-05-04T14:28:23.007Z,2.10
2023-05-04T19:10:12.360Z,2.60
2023-05-04T19:12:38.575Z,2.83
2023-05-04T19:15:05.939Z,2.97
2023-05-04T19:17:32.866Z,3.03
2023-05-04T19:19:59.035Z,2.70
2023-05-04T19:22:25.149Z,2.90
2023-05-04T19:24:51.465Z,2.90
2023-05-04T19:27:18.231Z,3.00
2023-05-04T19:29:44.366Z,2.80
2023-05-04T19:32:22.762Z,3.13
2023-05-04T19:34:51.047Z,3.30
2023-05-04T19:37:17.252Z,3.17
2023-05-04T19:39:43.464Z,3.20
2023-05-04T19:42:09.633Z,3.23
2023-05-04T19:44:36.586Z,2.93
2023-05-04T19:47:03.059Z,3.43
2023-05-04T19:49:29.338Z,3.03
2023-05-04T19:51:55.436Z,3.33
2023-05-04T19:54:21.654Z,3.50
2023-05-04T19:56:47.882Z,3.27
2023-05-04T19:59:14.052Z,3.40
2023-05-04T20:01:40.901Z,3.20
2023-05-04T20:04:07.775Z,3.40
2023-05-04T20:06:34.339Z,3.40
2023-05-04T20:09:00.748Z,3.47
2023-05-04T20:11:26.938Z,3.37
2023-05-04T20:13:55.243Z,3.17
2023-05-04T20:16:21.935Z,3.30
2023-05-04T20:18:48.911Z,3.47
2023-05-04T20:21:15.304Z,3.57
2023-05-04T20:23:41.478Z,3.30
2023-05-04T20:26:07.617Z,3.30
2023-05-04T20:28:33.785Z,3.50
2023-05-04T20:31:00.260Z,3.83
2023-05-04T20:33:26.399Z,3.53
2023-05-04T20:35:53.183Z,3.60
2023-05-04T20:38:19.330Z,3.20
2023-05-04T20:40:45.494Z,3.43
2023-05-04T20:43:11.609Z,3.67
2023-05-04T20:45:37.813Z,3.40
2023-05-04T20:48:04.657Z,3.50
2023-05-04T20:50:31.020Z,3.27
2023-05-04T20:53:00.553Z,3.80
2023-05-04T20:55:26.916Z,3.50
2023-05-04T21:14:02.446Z,3.70
2023-05-04T21:23:51.049Z,3.60
2023-05-04T21:30:00.440Z,3.87
2023-05-04T21:32:26.647Z,3.60
2023-05-04T21:34:53.108Z,3.50
2023-05-04T21:37:20.046Z,3.87
2023-05-04T21:39:46.886Z,3.80
2023-05-04T21:42:13.068Z,4.00
2023-05-04T21:44:39.223Z,4.00
2023-05-04T21:47:06.571Z,4.13
2023-05-04T21:49:32.821Z,3.83
2023-05-04T21:51:58.967Z,3.27
2023-05-04T21:54:25.118Z,4.00
2023-05-04T21:56:52.806Z,3.50
2023-05-04T21:59:18.944Z,3.40
2023-05-04T22:01:45.233Z,3.73
2023-05-04T22:04:11.607Z,3.83
2023-05-04T22:06:37.783Z,3.73
2023-05-04T22:09:04.430Z,3.93
2023-05-04T22:11:30.710Z,3.50
2023-05-04T22:13:57.450Z,3.90
2023-05-04T22:16:23.888Z,3.80
2023-05-04T22:18:50.120Z,3.50
2023-05-04T22:21:16.344Z,3.53
2023-05-04T22:23:42.455Z,3.40
2023-05-04T22:26:08.613Z,3.60
2023-05-04T22:28:34.757Z,3.30
2023-05-04T22:31:01.612Z,3.70
2023-05-04T22:33:27.806Z,3.87
2023-05-04T22:35:54.032Z,3.80
2023-05-04T22:38:20.173Z,3.77
2023-05-04T22:40:47.521Z,3.57
2023-05-04T22:43:13.637Z,3.87
2023-05-04T22:45:40.273Z,4.00
2023-05-04T22:48:07.196Z,4.53
2023-05-04T22:50:33.338Z,4.20
2023-05-04T22:52:59.663Z,4.20
2023-05-04T22:55:25.970Z,3.83
2023-05-04T22:57:52.098Z,3.93
2023-05-04T23:00:19.495Z,4.27
2023-05-04T23:02:45.634Z,3.77
2023-05-04T23:05:12.562Z,4.20
2023-05-04T23:07:38.749Z,3.97
2023-05-04T23:10:06.343Z,3.87
2023-05-04T23:12:33.076Z,3.80
2023-05-04T23:14:59.297Z,4.13
2023-05-04T23:17:25.534Z,4.33
2023-05-04T23:19:51.717Z,4.37
2023-05-04T23:22:18.481Z,4.17
2023-05-04T23:24:44.663Z,4.27
2023-05-04T23:27:10.792Z,4.40
2023-05-04T23:29:36.943Z,4.23
2023-05-04T23:32:03.553Z,4.00
2023-05-04T23:34:29.767Z,4.40
2023-05-04T23:36:55.880Z,4.43
2023-05-04T23:39:22.724Z,4.63
2023-05-04T23:41:48.838Z,4.40
2023-05-04T23:44:15.649Z,4.27
2023-05-04T23:46:42.072Z,4.50
2023-05-04T23:49:08.295Z,4.70
2023-05-04T23:51:34.421Z,4.17
2023-05-04T23:54:00.563Z,4.27
2023-05-04T23:56:27.789Z,4.13
2023-05-04T23:58:53.952Z,3.97
